sensor_id;sensor_type;location;lat;lon;timestamp;P1;durP1;ratioP1;P2;durP2;ratioP2
12768;SDS011;6448;48.916;8.990;2023-02-28T00:00:04;1.63;;;1.52;;
12768;SDS011;6448;48.916;8.990;2023-02-28T00:01:10;1.70;;;1.60;;
12768;SDS011;6448;48.916;8.990;2023-02-28T00:02:11;1.83;;;1.73;;
12768;SDS011;6448;48.916;8.990;2023-02-28T00:03:13;2.20;;;1.80;;
12768;SDS011;6448;48.916;8.990;2023-02-28T00:04:14;1.90;;;1.80;;
12768;SDS011;6448;48.916;8.990;2023-02-28T00:05:17;2.38;;;1.90;;
12768;SDS011;6448;48.916;8.990;2023-02-28T00:06:20;1.98;;;1.80;;
12768;SDS011;6448;48.916;8.990;2023-02-28T00:07:22;1.80;;;1.70;;
12768;SDS011;6448;48.916;8.990;2023-02-28T00:08:22;1.88;;;1.77;;
12768;SDS011;6448;48.916;8.990;2023-02-28T00:09:24;1.90;;;1.80;;
12768;SDS011;6448;48.916;8.990;2023-02-28T00:10:25;2.10;;;1.90;;
12768;SDS011;6448;48.916;8.990;2023-02-28T00:11:28;1.95;;;1.77;;
12768;SDS011;6448;48.916;8.990;2023-02-28T00:12:30;1.80;;;1.70;;
12768;SDS011;6448;48.916;8.990;2023-02-28T00:13:31;2.00;;;1.90;;
12768;SDS011;6448;48.916;8.990;2023-02-28T00:14:33;2.08;;;1.88;;
12768;SDS011;6448;48.916;8.990;2023-02-28T00:15:33;1.98;;;1.88;;
12768;SDS011;6448;48.916;8.990;2023-02-28T00:16:36;2.10;;;1.90;;
12768;SDS011;6448;48.916;8.990;2023-02-28T00:17:36;2.00;;;1.83;;
12768;SDS011;6448;48.916;8.990;2023-02-28T00:18:39;1.90;;;1.80;;
12768;SDS011;6448;48.916;8.990;2023-02-28T00:19:40;2.17;;;1.90;;
12768;SDS011;6448;48.916;8.990;2023-02-28T00:20:43;2.20;;;1.90;;
12768;SDS011;6448;48.916;8.990;2023-02-28T00:21:43;2.43;;;2.00;;
12768;SDS011;6448;48.916;8.990;2023-02-28T00:22:46;2.10;;;1.90;;
12768;SDS011;6448;48.916;8.990;2023-02-28T00:23:48;2.00;;;1.80;;
12768;SDS011;6448;48.916;8.990;2023-02-28T00:24:50;2.40;;;2.00;;
12768;SDS011;6448;48.916;8.990;2023-02-28T00:25:50;2.10;;;1.90;;
12768;SDS011;6448;48.916;8.990;2023-02-28T00:26:52;1.80;;;1.70;;
12768;SDS011;6448;48.916;8.990;2023-02-28T00:27:53;2.15;;;2.00;;
12768;SDS011;6448;48.916;8.990;2023-02-28T00:28:55;3.40;;;1.90;;
12768;SDS011;6448;48.916;8.990;2023-02-28T00:29:57;2.40;;;2.20;;
12768;SDS011;6448;48.916;8.990;2023-02-28T00:30:58;2.30;;;2.10;;
12768;SDS011;6448;48.916;8.990;2023-02-28T00:32:00;2.00;;;1.85;;
12768;SDS011;6448;48.916;8.990;2023-02-28T00:33:01;2.22;;;2.00;;
12768;SDS011;6448;48.916;8.990;2023-02-28T00:34:03;2.10;;;1.95;;
12768;SDS011;6448;48.916;8.990;2023-02-28T00:35:06;1.80;;;1.70;;
12768;SDS011;6448;48.916;8.990;2023-02-28T00:36:10;2.00;;;1.90;;
12768;SDS011;6448;48.916;8.990;2023-02-28T00:37:12;1.90;;;1.80;;
12768;SDS011;6448;48.916;8.990;2023-02-28T00:38:13;1.90;;;1.80;;
12768;SDS011;6448;48.916;8.990;2023-02-28T00:39:15;1.90;;;1.80;;
12768;SDS011;6448;48.916;8.990;2023-02-28T00:40:16;2.03;;;1.90;;
12768;SDS011;6448;48.916;8.990;2023-02-28T00:41:18;1.90;;;1.80;;
12768;SDS011;6448;48.916;8.990;2023-02-28T00:42:21;2.35;;;1.80;;
12768;SDS011;6448;48.916;8.990;2023-02-28T00:43:23;1.80;;;1.70;;
12768;SDS011;6448;48.916;8.990;2023-02-28T00:44:24;2.10;;;1.90;;
12768;SDS011;6448;48.916;8.990;2023-02-28T00:45:26;2.07;;;1.97;;
12768;SDS011;6448;48.916;8.990;2023-02-28T00:46:28;2.10;;;2.00;;
12768;SDS011;6448;48.916;8.990;2023-02-28T00:47:32;2.30;;;2.10;;
12768;SDS011;6448;48.916;8.990;2023-02-28T00:48:34;2.20;;;2.00;;
12768;SDS011;6448;48.916;8.990;2023-02-28T00:49:35;2.20;;;2.00;;
12768;SDS011;6448;48.916;8.990;2023-02-28T00:50:37;2.20;;;2.00;;
12768;SDS011;6448;48.916;8.990;2023-02-28T00:51:39;2.20;;;2.00;;
12768;SDS011;6448;48.916;8.990;2023-02-28T00:52:41;1.95;;;1.85;;
12768;SDS011;6448;48.916;8.990;2023-02-28T00:53:42;1.90;;;1.80;;
12768;SDS011;6448;48.916;8.990;2023-02-28T00:54:43;1.90;;;1.80;;
12768;SDS011;6448;48.916;8.990;2023-02-28T00:55:44;2.15;;;1.95;;
12768;SDS011;6448;48.916;8.990;2023-02-28T00:56:46;2.10;;;1.90;;
12768;SDS011;6448;48.916;8.990;2023-02-28T00:57:47;2.17;;;1.98;;
12768;SDS011;6448;48.916;8.990;2023-02-28T00:58:49;2.20;;;2.00;;
12768;SDS011;6448;48.916;8.990;2023-02-28T00:59:50;1.95;;;1.83;;
12768;SDS011;6448;48.916;8.990;2023-02-28T01:00:55;1.92;;;1.80;;
12768;SDS011;6448;48.916;8.990;2023-02-28T01:01:56;2.10;;;1.90;;
12768;SDS011;6448;48.916;8.990;2023-02-28T01:02:57;2.05;;;1.95;;
12768;SDS011;6448;48.916;8.990;2023-02-28T01:03:58;2.10;;;1.90;;
12768;SDS011;6448;48.916;8.990;2023-02-28T01:05:00;2.20;;;1.90;;
12768;SDS011;6448;48.916;8.990;2023-02-28T01:06:04;1.90;;;1.80;;
12768;SDS011;6448;48.916;8.990;2023-02-28T01:07:07;2.10;;;1.90;;
12768;SDS011;6448;48.916;8.990;2023-02-28T01:08:08;2.13;;;1.92;;
12768;SDS011;6448;48.916;8.990;2023-02-28T01:09:10;2.35;;;2.00;;
12768;SDS011;6448;48.916;8.990;2023-02-28T01:10:11;2.20;;;2.00;;
12768;SDS011;6448;48.916;8.990;2023-02-28T01:11:14;2.05;;;1.90;;
12768;SDS011;6448;48.916;8.990;2023-02-28T01:12:17;2.20;;;2.00;;
12768;SDS011;6448;48.916;8.990;2023-02-28T01:13:21;2.20;;;2.00;;
12768;SDS011;6448;48.916;8.990;2023-02-28T01:14:23;1.92;;;1.83;;
12768;SDS011;6448;48.916;8.990;2023-02-28T01:15:24;2.20;;;2.00;;
12768;SDS011;6448;48.916;8.990;2023-02-28T01:16:26;2.00;;;1.90;;
12768;SDS011;6448;48.916;8.990;2023-02-28T01:17:28;2.00;;;1.80;;
12768;SDS011;6448;48.916;8.990;2023-02-28T01:18:29;2.10;;;1.90;;
12768;SDS011;6448;48.916;8.990;2023-02-28T01:19:31;2.17;;;1.98;;
12768;SDS011;6448;48.916;8.990;2023-02-28T01:20:32;1.90;;;1.80;;
12768;SDS011;6448;48.916;8.990;2023-02-28T01:21:34;2.08;;;1.88;;
12768;SDS011;6448;48.916;8.990;2023-02-28T01:22:36;2.30;;;2.10;;
12768;SDS011;6448;48.916;8.990;2023-02-28T01:23:38;2.17;;;1.98;;
12768;SDS011;6448;48.916;8.990;2023-02-28T01:24:39;2.17;;;2.00;;
12768;SDS011;6448;48.916;8.990;2023-02-28T01:25:41;1.95;;;1.80;;
12768;SDS011;6448;48.916;8.990;2023-02-28T01:26:41;2.20;;;2.00;;
12768;SDS011;6448;48.916;8.990;2023-02-28T01:27:43;2.10;;;1.90;;
12768;SDS011;6448;48.916;8.990;2023-02-28T01:28:44;2.20;;;2.00;;
12768;SDS011;6448;48.916;8.990;2023-02-28T01:29:46;2.10;;;1.90;;
12768;SDS011;6448;48.916;8.990;2023-02-28T01:30:48;2.30;;;2.10;;
12768;SDS011;6448;48.916;8.990;2023-02-28T01:31:50;2.25;;;2.10;;
12768;SDS011;6448;48.916;8.990;2023-02-28T01:32:50;2.20;;;2.00;;
12768;SDS011;6448;48.916;8.990;2023-02-28T01:33:53;2.20;;;2.00;;
12768;SDS011;6448;48.916;8.990;2023-02-28T01:34:54;2.50;;;2.10;;
12768;SDS011;6448;48.916;8.990;2023-02-28T01:35:57;2.00;;;1.90;;
12768;SDS011;6448;48.916;8.990;2023-02-28T01:36:58;2.20;;;2.00;;
12768;SDS011;6448;48.916;8.990;2023-02-28T01:38:02;2.30;;;2.10;;
12768;SDS011;6448;48.916;8.990;2023-02-28T01:39:03;2.20;;;2.00;;
12768;SDS011;6448;48.916;8.990;2023-02-28T01:40:05;2.33;;;2.13;;
12768;SDS011;6448;48.916;8.990;2023-02-28T01:41:07;2.00;;;1.90;;
12768;SDS011;6448;48.916;8.990;2023-02-28T01:42:15;2.00;;;1.90;;
12768;SDS011;6448;48.916;8.990;2023-02-28T01:43:19;2.08;;;1.85;;
12768;SDS011;6448;48.916;8.990;2023-02-28T01:45:59;2.25;;;2.05;;
12768;SDS011;6448;48.916;8.990;2023-02-28T01:47:00;2.22;;;2.03;;
12768;SDS011;6448;48.916;8.990;2023-02-28T01:48:03;2.00;;;1.80;;
12768;SDS011;6448;48.916;8.990;2023-02-28T01:49:09;2.17;;;1.97;;
12768;SDS011;6448;48.916;8.990;2023-02-28T01:50:13;2.03;;;1.92;;
12768;SDS011;6448;48.916;8.990;2023-02-28T01:51:18;2.10;;;1.90;;
12768;SDS011;6448;48.916;8.990;2023-02-28T01:52:22;2.10;;;2.00;;
12768;SDS011;6448;48.916;8.990;2023-02-28T01:53:29;2.30;;;2.10;;
12768;SDS011;6448;48.916;8.990;2023-02-28T01:54:34;2.10;;;1.90;;
12768;SDS011;6448;48.916;8.990;2023-02-28T01:55:35;1.90;;;1.80;;
12768;SDS011;6448;48.916;8.990;2023-02-28T01:56:38;2.08;;;1.88;;
12768;SDS011;6448;48.916;8.990;2023-02-28T01:57:43;2.10;;;1.90;;
12768;SDS011;6448;48.916;8.990;2023-02-28T01:58:49;2.30;;;2.00;;
12768;SDS011;6448;48.916;8.990;2023-02-28T01:59:53;2.40;;;2.20;;
12768;SDS011;6448;48.916;8.990;2023-02-28T02:00:58;2.20;;;2.00;;
12768;SDS011;6448;48.916;8.990;2023-02-28T02:02:00;2.10;;;1.90;;
12768;SDS011;6448;48.916;8.990;2023-02-28T02:03:04;2.17;;;1.98;;
12768;SDS011;6448;48.916;8.990;2023-02-28T02:04:09;2.10;;;2.00;;
12768;SDS011;6448;48.916;8.990;2023-02-28T02:05:12;2.00;;;1.90;;
12768;SDS011;6448;48.916;8.990;2023-02-28T02:06:16;2.00;;;1.80;;
12768;SDS011;6448;48.916;8.990;2023-02-28T02:07:18;2.10;;;1.90;;
12768;SDS011;6448;48.916;8.990;2023-02-28T02:08:20;2.22;;;2.03;;
12768;SDS011;6448;48.916;8.990;2023-02-28T02:09:26;2.10;;;1.90;;
12768;SDS011;6448;48.916;8.990;2023-02-28T02:10:27;1.88;;;1.77;;
12768;SDS011;6448;48.916;8.990;2023-02-28T02:11:33;1.90;;;1.80;;
12768;SDS011;6448;48.916;8.990;2023-02-28T02:12:40;2.17;;;1.98;;
12768;SDS011;6448;48.916;8.990;2023-02-28T02:14:06;2.40;;;2.20;;
12768;SDS011;6448;48.916;8.990;2023-02-28T02:15:22;2.08;;;1.88;;
12768;SDS011;6448;48.916;8.990;2023-02-28T02:16:34;2.20;;;2.00;;
12768;SDS011;6448;48.916;8.990;2023-02-28T02:17:47;2.07;;;1.87;;
12768;SDS011;6448;48.916;8.990;2023-02-28T02:18:52;2.30;;;2.10;;
12768;SDS011;6448;48.916;8.990;2023-02-28T02:20:09;2.13;;;1.93;;
12768;SDS011;6448;48.916;8.990;2023-02-28T02:23:11;2.22;;;2.03;;
12768;SDS011;6448;48.916;8.990;2023-02-28T02:24:42;2.10;;;1.90;;
12768;SDS011;6448;48.916;8.990;2023-02-28T02:25:58;2.30;;;2.10;;
12768;SDS011;6448;48.916;8.990;2023-02-28T02:27:20;2.37;;;2.17;;
12768;SDS011;6448;48.916;8.990;2023-02-28T02:28:35;2.10;;;1.90;;
12768;SDS011;6448;48.916;8.990;2023-02-28T02:31:46;2.20;;;2.00;;
12768;SDS011;6448;48.916;8.990;2023-02-28T02:33:10;1.90;;;1.80;;
12768;SDS011;6448;48.916;8.990;2023-02-28T02:34:43;2.30;;;2.10;;
12768;SDS011;6448;48.916;8.990;2023-02-28T02:36:02;2.20;;;2.00;;
12768;SDS011;6448;48.916;8.990;2023-02-28T02:37:10;2.20;;;2.00;;
12768;SDS011;6448;48.916;8.990;2023-02-28T02:38:18;2.25;;;2.05;;
12768;SDS011;6448;48.916;8.990;2023-02-28T02:39:27;2.10;;;1.80;;
12768;SDS011;6448;48.916;8.990;2023-02-28T02:40:37;1.98;;;1.88;;
12768;SDS011;6448;48.916;8.990;2023-02-28T02:41:45;2.10;;;1.90;;
12768;SDS011;6448;48.916;8.990;2023-02-28T02:42:51;2.08;;;1.90;;
12768;SDS011;6448;48.916;8.990;2023-02-28T02:43:58;2.20;;;2.00;;
12768;SDS011;6448;48.916;8.990;2023-02-28T02:45:06;2.25;;;2.05;;
12768;SDS011;6448;48.916;8.990;2023-02-28T02:46:12;2.30;;;2.10;;
12768;SDS011;6448;48.916;8.990;2023-02-28T02:47:19;2.50;;;2.30;;
12768;SDS011;6448;48.916;8.990;2023-02-28T02:48:24;2.20;;;2.00;;
12768;SDS011;6448;48.916;8.990;2023-02-28T02:49:28;2.28;;;2.08;;
12768;SDS011;6448;48.916;8.990;2023-02-28T02:50:35;2.13;;;1.92;;
12768;SDS011;6448;48.916;8.990;2023-02-28T02:51:39;2.47;;;2.28;;
12768;SDS011;6448;48.916;8.990;2023-02-28T02:52:42;2.20;;;2.00;;
12768;SDS011;6448;48.916;8.990;2023-02-28T02:53:50;2.25;;;2.05;;
12768;SDS011;6448;48.916;8.990;2023-02-28T02:54:56;2.40;;;2.10;;
12768;SDS011;6448;48.916;8.990;2023-02-28T02:55:59;2.63;;;2.28;;
12768;SDS011;6448;48.916;8.990;2023-02-28T02:57:04;2.17;;;1.98;;
12768;SDS011;6448;48.916;8.990;2023-02-28T02:58:09;2.15;;;1.95;;
12768;SDS011;6448;48.916;8.990;2023-02-28T02:59:15;2.65;;;2.15;;
12768;SDS011;6448;48.916;8.990;2023-02-28T03:00:23;2.40;;;2.20;;
12768;SDS011;6448;48.916;8.990;2023-02-28T03:01:27;2.35;;;2.15;;
12768;SDS011;6448;48.916;8.990;2023-02-28T03:02:30;2.38;;;2.20;;
12768;SDS011;6448;48.916;8.990;2023-02-28T03:03:34;2.20;;;2.00;;
12768;SDS011;6448;48.916;8.990;2023-02-28T03:04:38;2.35;;;2.15;;
12768;SDS011;6448;48.916;8.990;2023-02-28T03:05:45;2.30;;;2.10;;
12768;SDS011;6448;48.916;8.990;2023-02-28T03:06:47;2.25;;;2.00;;
12768;SDS011;6448;48.916;8.990;2023-02-28T03:07:55;2.35;;;2.15;;
12768;SDS011;6448;48.916;8.990;2023-02-28T03:09:13;2.25;;;2.10;;
12768;SDS011;6448;48.916;8.990;2023-02-28T03:11:32;2.10;;;2.00;;
12768;SDS011;6448;48.916;8.990;2023-02-28T03:12:40;2.30;;;2.10;;
12768;SDS011;6448;48.916;8.990;2023-02-28T03:14:09;2.30;;;2.10;;
12768;SDS011;6448;48.916;8.990;2023-02-28T03:15:23;2.33;;;2.13;;
12768;SDS011;6448;48.916;8.990;2023-02-28T03:16:34;2.42;;;2.22;;
12768;SDS011;6448;48.916;8.990;2023-02-28T03:17:49;2.10;;;1.90;;
12768;SDS011;6448;48.916;8.990;2023-02-28T03:19:03;2.35;;;2.08;;
12768;SDS011;6448;48.916;8.990;2023-02-28T03:20:27;2.40;;;2.20;;
12768;SDS011;6448;48.916;8.990;2023-02-28T03:21:39;2.30;;;2.10;;
12768;SDS011;6448;48.916;8.990;2023-02-28T03:22:51;2.47;;;2.28;;
12768;SDS011;6448;48.916;8.990;2023-02-28T03:23:59;2.35;;;2.15;;
12768;SDS011;6448;48.916;8.990;2023-02-28T03:25:08;2.45;;;2.25;;
12768;SDS011;6448;48.916;8.990;2023-02-28T03:26:17;2.40;;;2.20;;
12768;SDS011;6448;48.916;8.990;2023-02-28T03:27:23;2.53;;;2.33;;
12768;SDS011;6448;48.916;8.990;2023-02-28T03:28:30;2.53;;;2.33;;
12768;SDS011;6448;48.916;8.990;2023-02-28T03:29:39;2.20;;;2.00;;
12768;SDS011;6448;48.916;8.990;2023-02-28T03:30:45;2.05;;;1.95;;
12768;SDS011;6448;48.916;8.990;2023-02-28T03:31:54;2.40;;;2.20;;
12768;SDS011;6448;48.916;8.990;2023-02-28T03:33:04;2.38;;;2.17;;
12768;SDS011;6448;48.916;8.990;2023-02-28T03:34:10;2.15;;;2.05;;
12768;SDS011;6448;48.916;8.990;2023-02-28T03:35:16;2.90;;;2.20;;
12768;SDS011;6448;48.916;8.990;2023-02-28T03:36:22;2.78;;;2.50;;
12768;SDS011;6448;48.916;8.990;2023-02-28T03:37:26;2.35;;;2.15;;
12768;SDS011;6448;48.916;8.990;2023-02-28T03:38:32;2.30;;;2.10;;
12768;SDS011;6448;48.916;8.990;2023-02-28T03:39:36;2.17;;;2.00;;
12768;SDS011;6448;48.916;8.990;2023-02-28T03:40:43;2.30;;;2.10;;
12768;SDS011;6448;48.916;8.990;2023-02-28T03:41:49;2.30;;;2.10;;
12768;SDS011;6448;48.916;8.990;2023-02-28T03:42:57;2.40;;;2.20;;
12768;SDS011;6448;48.916;8.990;2023-02-28T03:44:03;2.40;;;2.20;;
12768;SDS011;6448;48.916;8.990;2023-02-28T03:45:11;2.30;;;2.10;;
12768;SDS011;6448;48.916;8.990;2023-02-28T03:46:15;2.45;;;2.25;;
12768;SDS011;6448;48.916;8.990;2023-02-28T03:47:21;2.45;;;2.25;;
12768;SDS011;6448;48.916;8.990;2023-02-28T03:48:26;2.30;;;2.10;;
12768;SDS011;6448;48.916;8.990;2023-02-28T03:49:34;2.40;;;2.20;;
12768;SDS011;6448;48.916;8.990;2023-02-28T03:50:41;2.60;;;2.40;;
12768;SDS011;6448;48.916;8.990;2023-02-28T03:51:44;2.40;;;2.20;;
12768;SDS011;6448;48.916;8.990;2023-02-28T03:52:49;2.55;;;2.35;;
12768;SDS011;6448;48.916;8.990;2023-02-28T03:53:54;2.63;;;2.42;;
12768;SDS011;6448;48.916;8.990;2023-02-28T03:55:00;2.60;;;2.40;;
12768;SDS011;6448;48.916;8.990;2023-02-28T03:56:09;2.58;;;2.38;;
12768;SDS011;6448;48.916;8.990;2023-02-28T03:57:18;2.63;;;2.42;;
12768;SDS011;6448;48.916;8.990;2023-02-28T03:58:27;2.30;;;2.10;;
12768;SDS011;6448;48.916;8.990;2023-02-28T03:59:32;2.40;;;2.20;;
12768;SDS011;6448;48.916;8.990;2023-02-28T04:00:37;2.60;;;2.40;;
12768;SDS011;6448;48.916;8.990;2023-02-28T04:01:44;2.55;;;2.35;;
12768;SDS011;6448;48.916;8.990;2023-02-28T04:02:46;2.42;;;2.22;;
12768;SDS011;6448;48.916;8.990;2023-02-28T04:03:52;2.67;;;2.47;;
12768;SDS011;6448;48.916;8.990;2023-02-28T04:04:54;2.58;;;2.38;;
12768;SDS011;6448;48.916;8.990;2023-02-28T04:05:55;2.50;;;2.30;;
12768;SDS011;6448;48.916;8.990;2023-02-28T04:07:01;2.50;;;2.30;;
12768;SDS011;6448;48.916;8.990;2023-02-28T04:08:03;2.42;;;2.22;;
12768;SDS011;6448;48.916;8.990;2023-02-28T04:09:07;2.40;;;2.20;;
12768;SDS011;6448;48.916;8.990;2023-02-28T04:10:10;2.30;;;2.20;;
12768;SDS011;6448;48.916;8.990;2023-02-28T04:11:18;2.42;;;2.22;;
12768;SDS011;6448;48.916;8.990;2023-02-28T04:12:22;2.50;;;2.30;;
12768;SDS011;6448;48.916;8.990;2023-02-28T04:13:24;2.60;;;2.40;;
12768;SDS011;6448;48.916;8.990;2023-02-28T04:14:24;2.40;;;2.20;;
12768;SDS011;6448;48.916;8.990;2023-02-28T04:15:26;2.70;;;2.50;;
12768;SDS011;6448;48.916;8.990;2023-02-28T04:16:27;2.50;;;2.30;;
12768;SDS011;6448;48.916;8.990;2023-02-28T04:17:29;2.35;;;2.15;;
12768;SDS011;6448;48.916;8.990;2023-02-28T04:18:30;2.90;;;2.70;;
12768;SDS011;6448;48.916;8.990;2023-02-28T04:19:32;2.55;;;2.35;;
12768;SDS011;6448;48.916;8.990;2023-02-28T04:20:32;2.42;;;2.22;;
12768;SDS011;6448;48.916;8.990;2023-02-28T04:21:35;2.60;;;2.40;;
12768;SDS011;6448;48.916;8.990;2023-02-28T04:22:37;2.60;;;2.40;;
12768;SDS011;6448;48.916;8.990;2023-02-28T04:23:39;2.60;;;2.40;;
12768;SDS011;6448;48.916;8.990;2023-02-28T04:24:40;2.67;;;2.47;;
12768;SDS011;6448;48.916;8.990;2023-02-28T04:25:42;2.85;;;2.65;;
12768;SDS011;6448;48.916;8.990;2023-02-28T04:26:45;2.90;;;2.60;;
12768;SDS011;6448;48.916;8.990;2023-02-28T04:27:48;2.70;;;2.50;;
12768;SDS011;6448;48.916;8.990;2023-02-28T04:28:49;2.65;;;2.45;;
12768;SDS011;6448;48.916;8.990;2023-02-28T04:29:51;2.70;;;2.50;;
12768;SDS011;6448;48.916;8.990;2023-02-28T04:30:54;3.00;;;2.70;;
12768;SDS011;6448;48.916;8.990;2023-02-28T04:31:56;2.80;;;2.60;;
12768;SDS011;6448;48.916;8.990;2023-02-28T04:33:00;2.70;;;2.50;;
12768;SDS011;6448;48.916;8.990;2023-02-28T04:34:02;2.70;;;2.50;;
12768;SDS011;6448;48.916;8.990;2023-02-28T04:35:03;3.00;;;2.80;;
12768;SDS011;6448;48.916;8.990;2023-02-28T04:36:07;2.90;;;2.70;;
12768;SDS011;6448;48.916;8.990;2023-02-28T04:37:08;2.80;;;2.60;;
12768;SDS011;6448;48.916;8.990;2023-02-28T04:38:10;2.65;;;2.45;;
12768;SDS011;6448;48.916;8.990;2023-02-28T04:39:11;2.90;;;2.70;;
12768;SDS011;6448;48.916;8.990;2023-02-28T04:40:13;2.70;;;2.50;;
12768;SDS011;6448;48.916;8.990;2023-02-28T04:41:13;2.67;;;2.47;;
12768;SDS011;6448;48.916;8.990;2023-02-28T04:42:17;2.88;;;2.67;;
12768;SDS011;6448;48.916;8.990;2023-02-28T04:43:18;2.90;;;2.70;;
12768;SDS011;6448;48.916;8.990;2023-02-28T04:44:19;2.90;;;2.70;;
12768;SDS011;6448;48.916;8.990;2023-02-28T04:45:20;2.90;;;2.70;;
12768;SDS011;6448;48.916;8.990;2023-02-28T04:46:22;2.72;;;2.53;;
12768;SDS011;6448;48.916;8.990;2023-02-28T04:47:23;3.20;;;2.67;;
12768;SDS011;6448;48.916;8.990;2023-02-28T04:48:25;2.80;;;2.60;;
12768;SDS011;6448;48.916;8.990;2023-02-28T04:49:28;2.88;;;2.67;;
12768;SDS011;6448;48.916;8.990;2023-02-28T04:50:30;2.90;;;2.70;;
12768;SDS011;6448;48.916;8.990;2023-02-28T04:51:30;2.85;;;2.65;;
12768;SDS011;6448;48.916;8.990;2023-02-28T04:52:32;3.20;;;2.90;;
12768;SDS011;6448;48.916;8.990;2023-02-28T04:53:33;3.08;;;2.80;;
12768;SDS011;6448;48.916;8.990;2023-02-28T04:54:35;3.00;;;2.75;;
12768;SDS011;6448;48.916;8.990;2023-02-28T04:55:38;2.63;;;2.42;;
12768;SDS011;6448;48.916;8.990;2023-02-28T04:56:40;3.13;;;2.70;;
12768;SDS011;6448;48.916;8.990;2023-02-28T04:57:42;3.10;;;2.83;;
12768;SDS011;6448;48.916;8.990;2023-02-28T04:58:44;3.10;;;2.90;;
12768;SDS011;6448;48.916;8.990;2023-02-28T04:59:45;3.00;;;2.80;;
12768;SDS011;6448;48.916;8.990;2023-02-28T05:00:47;2.95;;;2.72;;
12768;SDS011;6448;48.916;8.990;2023-02-28T05:01:48;2.80;;;2.60;;
12768;SDS011;6448;48.916;8.990;2023-02-28T05:02:50;2.90;;;2.70;;
12768;SDS011;6448;48.916;8.990;2023-02-28T05:03:51;2.75;;;2.55;;
12768;SDS011;6448;48.916;8.990;2023-02-28T05:04:54;2.80;;;2.60;;
12768;SDS011;6448;48.916;8.990;2023-02-28T05:05:55;2.90;;;2.70;;
12768;SDS011;6448;48.916;8.990;2023-02-28T05:06:56;2.72;;;2.53;;
12768;SDS011;6448;48.916;8.990;2023-02-28T05:07:57;2.60;;;2.40;;
12768;SDS011;6448;48.916;8.990;2023-02-28T05:08:59;3.00;;;2.80;;
12768;SDS011;6448;48.916;8.990;2023-02-28T05:10:00;3.08;;;2.88;;
12768;SDS011;6448;48.916;8.990;2023-02-28T05:11:05;3.30;;;2.90;;
12768;SDS011;6448;48.916;8.990;2023-02-28T05:12:08;2.90;;;2.70;;
12768;SDS011;6448;48.916;8.990;2023-02-28T05:13:12;2.75;;;2.55;;
12768;SDS011;6448;48.916;8.990;2023-02-28T05:14:13;2.70;;;2.50;;
12768;SDS011;6448;48.916;8.990;2023-02-28T05:15:16;3.08;;;2.80;;
12768;SDS011;6448;48.916;8.990;2023-02-28T05:16:17;2.95;;;2.75;;
12768;SDS011;6448;48.916;8.990;2023-02-28T05:17:19;3.05;;;2.85;;
12768;SDS011;6448;48.916;8.990;2023-02-28T05:18:20;2.90;;;2.70;;
12768;SDS011;6448;48.916;8.990;2023-02-28T05:19:22;2.88;;;2.67;;
12768;SDS011;6448;48.916;8.990;2023-02-28T05:20:23;2.80;;;2.60;;
12768;SDS011;6448;48.916;8.990;2023-02-28T05:21:26;2.80;;;2.60;;
12768;SDS011;6448;48.916;8.990;2023-02-28T05:22:29;2.90;;;2.70;;
12768;SDS011;6448;48.916;8.990;2023-02-28T05:23:30;2.80;;;2.60;;
12768;SDS011;6448;48.916;8.990;2023-02-28T05:24:32;3.33;;;3.03;;
12768;SDS011;6448;48.916;8.990;2023-02-28T05:25:33;2.90;;;2.70;;
12768;SDS011;6448;48.916;8.990;2023-02-28T05:26:35;3.33;;;3.03;;
12768;SDS011;6448;48.916;8.990;2023-02-28T05:27:37;3.00;;;2.80;;
12768;SDS011;6448;48.916;8.990;2023-02-28T05:28:40;3.30;;;3.00;;
12768;SDS011;6448;48.916;8.990;2023-02-28T05:29:41;2.90;;;2.70;;
12768;SDS011;6448;48.916;8.990;2023-02-28T05:30:45;2.70;;;2.50;;
12768;SDS011;6448;48.916;8.990;2023-02-28T05:31:46;3.00;;;2.80;;
12768;SDS011;6448;48.916;8.990;2023-02-28T05:32:49;3.33;;;3.00;;
12768;SDS011;6448;48.916;8.990;2023-02-28T05:33:51;2.70;;;2.50;;
12768;SDS011;6448;48.916;8.990;2023-02-28T05:34:53;2.97;;;2.78;;
12768;SDS011;6448;48.916;8.990;2023-02-28T05:35:54;3.17;;;2.97;;
12768;SDS011;6448;48.916;8.990;2023-02-28T05:36:55;3.20;;;3.00;;
12768;SDS011;6448;48.916;8.990;2023-02-28T05:37:56;3.10;;;2.90;;
12768;SDS011;6448;48.916;8.990;2023-02-28T05:38:58;3.00;;;2.80;;
12768;SDS011;6448;48.916;8.990;2023-02-28T05:39:59;3.17;;;2.90;;
12768;SDS011;6448;48.916;8.990;2023-02-28T05:41:04;3.20;;;3.00;;
12768;SDS011;6448;48.916;8.990;2023-02-28T05:42:06;3.00;;;2.80;;
12768;SDS011;6448;48.916;8.990;2023-02-28T05:43:09;3.10;;;2.90;;
12768;SDS011;6448;48.916;8.990;2023-02-28T05:44:14;3.10;;;2.90;;
12768;SDS011;6448;48.916;8.990;2023-02-28T05:45:16;3.03;;;2.80;;
12768;SDS011;6448;48.916;8.990;2023-02-28T05:46:17;3.13;;;2.92;;
12768;SDS011;6448;48.916;8.990;2023-02-28T05:47:18;2.92;;;2.72;;
12768;SDS011;6448;48.916;8.990;2023-02-28T05:48:20;3.28;;;2.97;;
12768;SDS011;6448;48.916;8.990;2023-02-28T05:49:21;3.25;;;3.05;;
12768;SDS011;6448;48.916;8.990;2023-02-28T05:50:23;3.17;;;2.88;;
12768;SDS011;6448;48.916;8.990;2023-02-28T05:51:23;3.00;;;2.80;;
12768;SDS011;6448;48.916;8.990;2023-02-28T05:52:25;3.20;;;2.90;;
12768;SDS011;6448;48.916;8.990;2023-02-28T05:53:26;3.20;;;3.00;;
12768;SDS011;6448;48.916;8.990;2023-02-28T05:54:28;3.00;;;2.80;;
12768;SDS011;6448;48.916;8.990;2023-02-28T05:55:30;3.10;;;2.90;;
12768;SDS011;6448;48.916;8.990;2023-02-28T05:56:30;3.10;;;2.90;;
12768;SDS011;6448;48.916;8.990;2023-02-28T05:57:34;3.42;;;3.13;;
12768;SDS011;6448;48.916;8.990;2023-02-28T05:58:35;2.90;;;2.70;;
12768;SDS011;6448;48.916;8.990;2023-02-28T05:59:38;3.10;;;2.90;;
12768;SDS011;6448;48.916;8.990;2023-02-28T06:00:40;3.20;;;3.00;;
12768;SDS011;6448;48.916;8.990;2023-02-28T06:01:42;3.20;;;2.92;;
12768;SDS011;6448;48.916;8.990;2023-02-28T06:02:48;3.17;;;2.88;;
12768;SDS011;6448;48.916;8.990;2023-02-28T06:03:49;3.20;;;2.90;;
12768;SDS011;6448;48.916;8.990;2023-02-28T06:04:51;3.33;;;3.10;;
12768;SDS011;6448;48.916;8.990;2023-02-28T06:05:52;3.40;;;3.10;;
12768;SDS011;6448;48.916;8.990;2023-02-28T06:06:53;3.58;;;3.28;;
12768;SDS011;6448;48.916;8.990;2023-02-28T06:07:57;3.22;;;3.00;;
12768;SDS011;6448;48.916;8.990;2023-02-28T06:08:58;3.50;;;3.20;;
12768;SDS011;6448;48.916;8.990;2023-02-28T06:09:59;3.95;;;3.20;;
12768;SDS011;6448;48.916;8.990;2023-02-28T06:11:03;3.58;;;3.28;;
12768;SDS011;6448;48.916;8.990;2023-02-28T06:12:04;3.65;;;3.35;;
12768;SDS011;6448;48.916;8.990;2023-02-28T06:13:09;3.33;;;3.03;;
12768;SDS011;6448;48.916;8.990;2023-02-28T06:14:12;3.60;;;3.30;;
12768;SDS011;6448;48.916;8.990;2023-02-28T06:15:17;3.25;;;2.95;;
12768;SDS011;6448;48.916;8.990;2023-02-28T06:16:18;3.63;;;3.33;;
12768;SDS011;6448;48.916;8.990;2023-02-28T06:17:20;3.30;;;3.10;;
12768;SDS011;6448;48.916;8.990;2023-02-28T06:18:21;3.30;;;3.00;;
12768;SDS011;6448;48.916;8.990;2023-02-28T06:19:23;3.60;;;3.30;;
12768;SDS011;6448;48.916;8.990;2023-02-28T06:20:26;3.25;;;2.95;;
12768;SDS011;6448;48.916;8.990;2023-02-28T06:21:29;3.30;;;3.00;;
12768;SDS011;6448;48.916;8.990;2023-02-28T06:22:31;3.90;;;3.33;;
12768;SDS011;6448;48.916;8.990;2023-02-28T06:23:32;3.30;;;3.00;;
12768;SDS011;6448;48.916;8.990;2023-02-28T06:24:33;3.95;;;3.65;;
12768;SDS011;6448;48.916;8.990;2023-02-28T06:25:35;3.58;;;3.28;;
12768;SDS011;6448;48.916;8.990;2023-02-28T06:26:35;3.55;;;3.25;;
12768;SDS011;6448;48.916;8.990;2023-02-28T06:27:37;3.47;;;3.17;;
12768;SDS011;6448;48.916;8.990;2023-02-28T06:28:38;3.63;;;3.33;;
12768;SDS011;6448;48.916;8.990;2023-02-28T06:29:40;3.60;;;3.30;;
12768;SDS011;6448;48.916;8.990;2023-02-28T06:30:42;3.40;;;3.10;;
12768;SDS011;6448;48.916;8.990;2023-02-28T06:31:44;3.60;;;3.30;;
12768;SDS011;6448;48.916;8.990;2023-02-28T06:32:45;3.67;;;3.38;;
12768;SDS011;6448;48.916;8.990;2023-02-28T06:33:49;3.60;;;3.30;;
12768;SDS011;6448;48.916;8.990;2023-02-28T06:34:50;3.75;;;3.45;;
12768;SDS011;6448;48.916;8.990;2023-02-28T06:35:52;3.60;;;3.30;;
12768;SDS011;6448;48.916;8.990;2023-02-28T06:36:53;3.60;;;3.30;;